createdAt,value
2022-12-08T00:00:17.570Z,28.35
2022-12-08T00:02:47.906Z,33.30
2022-12-08T00:05:33.227Z,21.55
2022-12-08T00:08:18.504Z,22.45
2022-12-08T00:10:51.232Z,31.75
2022-12-08T00:13:18.741Z,29.20
2022-12-08T00:15:46.186Z,29.70
2022-12-08T00:18:13.825Z,39.10
2022-12-08T00:20:41.414Z,31.08
2022-12-08T00:23:08.834Z,29.67
2022-12-08T00:25:36.941Z,34.92
2022-12-08T00:28:06.106Z,37.45
2022-12-08T00:30:35.265Z,42.60
2022-12-08T00:33:02.714Z,41.15
2022-12-08T00:35:30.220Z,39.22
2022-12-08T00:38:01.112Z,41.08
2022-12-08T00:40:31.492Z,41.75
2022-12-08T00:42:59.170Z,40.40
2022-12-08T00:45:30.465Z,47.60
2022-12-08T00:47:57.871Z,49.47
2022-12-08T00:50:29.584Z,57.00
2022-12-08T00:52:57.114Z,49.58
2022-12-08T00:55:26.047Z,49.85
2022-12-08T00:57:56.763Z,41.88
2022-12-08T01:00:24.167Z,47.17
2022-12-08T01:02:52.934Z,43.88
2022-12-08T01:05:20.522Z,43.60
2022-12-08T01:07:49.060Z,42.92
2022-12-08T01:10:18.932Z,42.15
2022-12-08T01:12:47.253Z,38.47
2022-12-08T01:15:17.083Z,52.75
2022-12-08T01:17:44.500Z,45.50
2022-12-08T01:20:13.430Z,51.67
2022-12-08T01:22:42.925Z,55.17
2022-12-08T01:25:12.233Z,38.28
2022-12-08T01:27:39.896Z,43.90
2022-12-08T01:30:08.101Z,44.85
2022-12-08T01:32:35.545Z,39.72
2022-12-08T01:35:02.960Z,41.88
2022-12-08T01:37:34.981Z,43.33
2022-12-08T01:40:02.935Z,46.00
2022-12-08T01:42:32.334Z,47.50
2022-12-08T01:45:02.418Z,39.65
2022-12-08T01:47:36.908Z,33.25
2022-12-08T01:50:08.525Z,33.88
2022-12-08T01:52:41.435Z,40.38
2022-12-08T01:55:12.284Z,40.20
2022-12-08T01:57:42.350Z,38.42
2022-12-08T02:00:12.440Z,39.85
2022-12-08T02:02:47.846Z,31.23
2022-12-08T02:05:16.165Z,38.13
2022-12-08T02:07:48.038Z,34.00
2022-12-08T02:10:18.628Z,36.33
2022-12-08T02:12:51.211Z,35.28
2022-12-08T02:15:19.081Z,33.95
2022-12-08T02:20:31.951Z,44.08
2022-12-08T02:23:05.778Z,36.15
2022-12-08T02:25:41.002Z,38.58
2022-12-08T02:28:25.766Z,36.65
2022-12-08T02:33:49.979Z,38.90
2022-12-08T02:36:23.889Z,38.55
2022-12-08T02:38:58.677Z,41.40
2022-12-08T02:41:32.640Z,34.67
2022-12-08T02:44:09.590Z,40.25
2022-12-08T02:46:40.674Z,46.78
2022-12-08T02:49:14.523Z,38.67
2022-12-08T02:51:44.612Z,43.95
2022-12-08T02:54:12.709Z,43.88
2022-12-08T02:56:47.396Z,42.85
2022-12-08T02:59:28.832Z,45.08
2022-12-08T03:02:03.092Z,49.15
2022-12-08T03:04:36.579Z,45.45
2022-12-08T03:07:11.770Z,48.78
2022-12-08T03:09:47.145Z,47.13
2022-12-08T03:12:17.610Z,47.75
2022-12-08T03:14:46.473Z,42.85
2022-12-08T03:17:14.824Z,41.53
2022-12-08T03:19:45.935Z,44.90
2022-12-08T03:22:18.909Z,50.75
2022-12-08T03:24:46.716Z,56.15
2022-12-08T03:27:19.456Z,46.67
2022-12-08T03:29:50.036Z,41.53
2022-12-08T03:32:23.316Z,57.50
2022-12-08T03:34:53.615Z,49.10
2022-12-08T03:37:25.326Z,51.25
2022-12-08T03:39:56.565Z,56.95
2022-12-08T03:42:24.109Z,52.28
2022-12-08T03:44:52.096Z,53.85
2022-12-08T03:49:48.421Z,56.78
2022-12-08T03:52:15.990Z,52.85
2022-12-08T03:54:44.800Z,57.10
2022-12-08T03:57:13.189Z,58.25
2022-12-08T03:59:40.649Z,51.08
2022-12-08T04:02:08.128Z,60.55
2022-12-08T04:04:35.748Z,58.90
2022-12-08T04:07:03.131Z,58.28
2022-12-08T04:09:30.578Z,63.28
2022-12-08T04:11:59.302Z,60.70
2022-12-08T04:14:26.824Z,70.13
2022-12-08T04:16:54.257Z,74.22
2022-12-08T04:19:21.627Z,52.83
2022-12-08T04:21:48.992Z,69.85
2022-12-08T04:24:16.383Z,65.97
2022-12-08T04:26:43.806Z,63.28
2022-12-08T04:29:12.511Z,65.28
2022-12-08T04:31:40.190Z,64.57
2022-12-08T04:34:07.615Z,75.95
2022-12-08T04:36:34.979Z,71.32
2022-12-08T04:39:02.399Z,74.80
2022-12-08T04:41:32.774Z,75.82
2022-12-08T04:44:03.985Z,67.05
2022-12-08T04:46:33.315Z,67.80
2022-12-08T04:49:01.133Z,69.00
2022-12-08T04:51:28.680Z,73.75
2022-12-08T04:53:56.550Z,50.50
2022-12-08T04:56:27.962Z,60.65
2022-12-08T04:58:57.249Z,55.63
2022-12-08T05:01:28.895Z,65.32
2022-12-08T05:04:08.740Z,61.63
2022-12-08T05:06:36.276Z,85.18
2022-12-08T05:09:05.568Z,65.70
2022-12-08T05:11:33.156Z,57.88
2022-12-08T05:14:02.286Z,62.90
2022-12-08T05:16:30.056Z,62.72
2022-12-08T05:19:03.705Z,54.13
2022-12-08T05:21:45.315Z,63.22
2022-12-08T05:24:14.481Z,59.45
2022-12-08T05:26:42.430Z,57.83
2022-12-08T05:29:09.995Z,55.85
2022-12-08T05:31:39.016Z,59.38
2022-12-08T05:34:09.334Z,51.45
2022-12-08T05:36:37.253Z,49.80
2022-12-08T05:39:06.586Z,56.58
2022-12-08T05:41:34.036Z,49.40
2022-12-08T05:44:01.439Z,39.50
2022-12-08T05:46:29.408Z,43.35
2022-12-08T05:49:02.607Z,38.40
2022-12-08T05:51:33.303Z,43.28
2022-12-08T05:54:01.203Z,42.08
2022-12-08T05:56:28.682Z,49.75
2022-12-08T05:58:58.059Z,50.55
2022-12-08T06:01:27.988Z,49.63
2022-12-08T06:03:55.809Z,51.05
2022-12-08T06:08:58.063Z,55.53
2022-12-08T06:11:26.676Z,61.15
2022-12-08T06:13:54.541Z,57.25
2022-12-08T06:18:52.586Z,53.80
2022-12-08T06:21:20.294Z,61.47
2022-12-08T06:23:53.362Z,61.58
2022-12-08T06:26:25.725Z,70.47
2022-12-08T06:28:53.179Z,71.35
2022-12-08T06:31:21.653Z,65.22
2022-12-08T06:33:49.368Z,70.32
2022-12-08T06:36:20.941Z,80.00
2022-12-08T06:38:48.513Z,77.43
2022-12-08T06:41:22.208Z,77.10
2022-12-08T06:43:49.778Z,68.03
2022-12-08T06:46:24.326Z,64.22
2022-12-08T06:48:51.791Z,54.97
2022-12-08T06:51:19.887Z,46.50
2022-12-08T06:53:47.789Z,52.78
2022-12-08T06:58:53.328Z,50.28
2022-12-08T07:01:23.889Z,49.92
2022-12-08T07:03:53.836Z,44.92
2022-12-08T07:06:25.281Z,37.55
2022-12-08T07:08:52.935Z,38.97
2022-12-08T07:11:22.949Z,46.38
2022-12-08T07:13:52.252Z,33.08
2022-12-08T07:16:20.200Z,35.85
2022-12-08T07:21:21.119Z,32.00
2022-12-08T07:23:57.665Z,32.00
2022-12-08T07:26:26.769Z,38.55
2022-12-08T07:28:58.503Z,36.67
2022-12-08T07:31:28.532Z,40.95
2022-12-08T07:33:57.989Z,43.85
2022-12-08T07:36:25.981Z,42.10
2022-12-08T07:41:26.103Z,48.53
2022-12-08T07:43:55.502Z,45.20
2022-12-08T07:46:30.276Z,54.00
2022-12-08T07:49:01.650Z,53.35
2022-12-08T07:51:29.098Z,45.85
2022-12-08T07:53:56.665Z,57.08
2022-12-08T07:56:29.184Z,48.47
2022-12-08T07:58:56.756Z,44.63
2022-12-08T08:01:26.737Z,47.15
2022-12-08T08:03:55.943Z,43.63
2022-12-08T08:06:23.758Z,37.88
2022-12-08T08:08:56.243Z,41.33
2022-12-08T08:11:25.699Z,39.25
2022-12-08T08:13:53.611Z,46.30
2022-12-08T08:16:28.588Z,41.50
2022-12-08T08:19:01.435Z,40.38
2022-12-08T08:21:45.046Z,47.53
2022-12-08T08:24:13.598Z,45.88
2022-12-08T08:26:43.355Z,49.45
2022-12-08T08:29:15.292Z,52.30
2022-12-08T08:31:44.112Z,60.53
2022-12-08T08:34:17.581Z,52.88
2022-12-08T08:36:47.212Z,53.50
2022-12-08T08:39:14.645Z,55.72
2022-12-08T08:41:43.463Z,47.30
2022-12-08T08:44:14.556Z,52.55
2022-12-08T08:46:42.122Z,54.00
2022-12-08T08:49:10.919Z,57.45
2022-12-08T08:51:38.432Z,48.22
2022-12-08T08:54:07.677Z,42.33
2022-12-08T08:56:35.577Z,44.67
2022-12-08T09:01:33.083Z,46.35
2022-12-08T09:04:01.265Z,44.33
2022-12-08T09:06:32.665Z,48.95
2022-12-08T09:09:00.227Z,37.78
2022-12-08T09:11:33.569Z,41.20
2022-12-08T09:14:03.644Z,39.88
2022-12-08T09:16:38.920Z,39.80
2022-12-08T09:21:37.892Z,34.33
2022-12-08T09:24:05.419Z,31.38
2022-12-08T09:26:32.940Z,34.83
2022-12-08T09:29:06.308Z,31.48
2022-12-08T09:31:35.205Z,28.58
2022-12-08T09:34:03.088Z,33.78
2022-12-08T09:38:59.490Z,30.45
2022-12-08T09:41:38.793Z,35.85
2022-12-08T09:44:22.977Z,30.92
2022-12-08T09:46:52.333Z,32.17
2022-12-08T09:49:22.096Z,35.10
2022-12-08T09:51:51.768Z,29.25
2022-12-08T09:54:25.154Z,33.55
2022-12-08T09:56:55.062Z,31.30
2022-12-08T09:59:27.457Z,24.95
2022-12-08T10:02:01.413Z,29.25
2022-12-08T10:04:35.903Z,36.75
2022-12-08T10:07:05.877Z,28.55
2022-12-08T10:09:44.122Z,29.48
2022-12-08T10:12:14.847Z,28.55
2022-12-08T10:14:43.545Z,27.55
2022-12-08T10:17:18.434Z,22.10
2022-12-08T10:19:48.365Z,28.92
2022-12-08T10:22:21.181Z,32.72
2022-12-08T10:24:53.503Z,35.38
2022-12-08T10:27:21.239Z,32.25
2022-12-08T10:29:48.840Z,37.80
2022-12-08T10:32:18.595Z,36.10
2022-12-08T10:35:04.998Z,32.35
2022-12-08T10:37:35.703Z,34.03
2022-12-08T10:40:07.818Z,33.67
2022-12-08T10:42:37.335Z,33.15
2022-12-08T10:45:16.867Z,42.45
2022-12-08T10:47:46.487Z,38.65
2022-12-08T10:50:19.307Z,39.55
2022-12-08T10:52:47.598Z,46.15
2022-12-08T10:55:17.540Z,41.30
2022-12-08T10:57:48.890Z,51.90
2022-12-08T11:00:18.291Z,50.83
2022-12-08T11:02:54.125Z,48.05
2022-12-08T11:05:22.649Z,46.88
2022-12-08T11:07:51.051Z,47.67
2022-12-08T11:10:21.046Z,54.88
2022-12-08T11:12:51.801Z,55.22
2022-12-08T11:15:20.053Z,55.58
2022-12-08T11:18:03.398Z,42.60
2022-12-08T11:20:38.378Z,40.33
2022-12-08T11:23:19.671Z,42.25
2022-12-08T11:25:53.091Z,37.03
2022-12-08T11:28:23.389Z,34.30
2022-12-08T11:30:57.554Z,42.88
2022-12-08T11:33:25.982Z,48.22
2022-12-08T11:35:55.250Z,47.72
2022-12-08T11:38:30.527Z,44.65
2022-12-08T11:41:01.465Z,40.63
2022-12-08T11:43:36.844Z,38.70
2022-12-08T11:46:10.542Z,37.40
2022-12-08T11:48:41.327Z,48.30
2022-12-08T11:51:16.798Z,36.85
2022-12-08T11:53:51.608Z,36.00
2022-12-08T11:56:24.985Z,41.97
2022-12-08T11:58:54.114Z,36.83
2022-12-08T12:01:22.577Z,40.13
2022-12-08T12:03:56.123Z,34.60
2022-12-08T12:06:57.825Z,36.13
2022-12-08T12:09:31.054Z,35.08
2022-12-08T12:12:16.492Z,33.13
2022-12-08T12:14:53.106Z,37.33
2022-12-08T12:17:27.781Z,38.55
2022-12-08T12:19:59.874Z,38.05
2022-12-08T12:22:33.006Z,36.42
2022-12-08T12:25:03.082Z,43.45
2022-12-08T12:27:35.906Z,39.25
2022-12-08T12:30:05.676Z,36.83
2022-12-08T12:32:42.377Z,40.47
2022-12-08T12:35:16.313Z,36.85
2022-12-08T12:37:44.496Z,31.83
2022-12-08T12:40:17.610Z,35.45
2022-12-08T12:42:48.775Z,34.17
2022-12-08T12:45:29.126Z,34.15
2022-12-08T12:48:23.555Z,38.80
2022-12-08T12:50:51.410Z,42.70
2022-12-08T12:58:24.124Z,37.45
2022-12-08T13:03:27.201Z,41.90
2022-12-08T13:05:54.862Z,38.55
2022-12-08T13:08:24.291Z,36.47
2022-12-08T13:11:01.187Z,46.55
2022-12-08T13:13:32.855Z,38.60
2022-12-08T13:16:12.738Z,39.83
2022-12-08T13:18:50.327Z,39.85
2022-12-08T13:21:22.461Z,33.03
2022-12-08T13:24:14.167Z,37.08
2022-12-08T13:26:47.455Z,46.40
2022-12-08T13:29:21.085Z,37.63
2022-12-08T13:31:51.429Z,43.70
2022-12-08T13:34:35.219Z,40.08
2022-12-08T13:37:20.665Z,40.13
2022-12-08T13:39:50.205Z,46.25
2022-12-08T13:42:21.507Z,41.60
2022-12-08T13:48:13.789Z,40.20
2022-12-08T13:52:37.062Z,42.17
2022-12-08T13:59:11.310Z,44.65
2022-12-08T14:01:45.296Z,46.63
2022-12-08T14:07:04.577Z,50.38
2022-12-08T14:09:37.507Z,45.15
2022-12-08T14:12:06.347Z,52.97
2022-12-08T14:17:24.570Z,46.45
2022-12-08T14:19:56.227Z,50.28
2022-12-08T14:22:23.604Z,50.53
2022-12-08T14:24:51.963Z,52.60
2022-12-08T14:27:23.220Z,52.60
2022-12-08T14:29:52.296Z,51.70
2022-12-08T14:32:28.839Z,53.22
2022-12-08T14:34:57.871Z,60.53
2022-12-08T14:37:28.031Z,52.33
2022-12-08T14:39:58.768Z,66.88
2022-12-08T14:42:28.258Z,56.97
2022-12-08T14:44:59.596Z,53.85
2022-12-08T14:47:31.866Z,63.75
2022-12-08T14:49:59.769Z,54.25
2022-12-08T14:52:30.500Z,63.80
2022-12-08T14:54:58.580Z,53.78
2022-12-08T14:57:34.518Z,57.65
2022-12-08T15:00:11.213Z,57.03
2022-12-08T15:02:43.040Z,42.40
2022-12-08T15:05:12.328Z,42.83
2022-12-08T15:07:46.986Z,42.63
2022-12-08T15:10:27.230Z,36.25
2022-12-08T15:13:02.572Z,42.92
2022-12-08T15:15:31.445Z,36.17
2022-12-08T15:18:03.056Z,36.78
2022-12-08T15:20:35.930Z,31.55
2022-12-08T15:23:05.253Z,35.35
2022-12-08T15:25:33.149Z,37.58
2022-12-08T15:28:05.269Z,33.85
2022-12-08T15:30:33.526Z,34.63
2022-12-08T15:33:02.687Z,33.90
2022-12-08T15:35:37.259Z,32.53
2022-12-08T15:38:08.119Z,35.75
2022-12-08T15:40:35.799Z,32.47
2022-12-08T15:43:05.375Z,42.60
2022-12-08T15:45:33.187Z,35.03
2022-12-08T15:48:02.081Z,41.50
2022-12-08T15:50:35.080Z,38.80
2022-12-08T15:53:02.510Z,40.50
2022-12-08T15:55:37.178Z,38.58
2022-12-08T16:00:57.348Z,40.95
2022-12-08T16:04:13.747Z,37.75
2022-12-08T16:09:12.474Z,41.00
2022-12-08T16:12:07.786Z,43.90
2022-12-08T16:17:24.728Z,48.83
2022-12-08T16:19:53.539Z,44.72
2022-12-08T16:25:18.174Z,41.85
2022-12-08T16:30:36.812Z,49.38
2022-12-08T16:33:04.918Z,46.25
2022-12-08T16:35:33.777Z,46.60
2022-12-08T16:38:01.185Z,53.13
2022-12-08T16:40:31.514Z,67.63
2022-12-08T16:42:58.167Z,51.38
2022-12-08T16:45:26.805Z,61.90
2022-12-08T16:47:58.949Z,55.35
2022-12-08T16:50:27.545Z,54.78
2022-12-08T16:52:59.039Z,51.38
2022-12-08T16:55:27.103Z,54.35
2022-12-08T16:57:54.564Z,57.42
2022-12-08T17:00:23.319Z,54.10
2022-12-08T17:02:51.396Z,55.88
2022-12-08T17:05:23.690Z,59.88
2022-12-08T17:08:03.428Z,63.60
2022-12-08T17:10:34.307Z,62.60
2022-12-08T17:13:02.606Z,58.40
2022-12-08T17:15:32.492Z,62.38
2022-12-08T17:18:03.875Z,56.60
2022-12-08T17:20:34.503Z,62.47
2022-12-08T17:23:03.328Z,66.43
2022-12-08T17:25:32.405Z,72.45
2022-12-08T17:27:59.999Z,64.80
2022-12-08T17:30:30.436Z,90.22
2022-12-08T17:32:57.969Z,74.75
2022-12-08T17:35:25.370Z,74.47
2022-12-08T17:37:53.020Z,81.80
2022-12-08T17:40:20.609Z,68.70
2022-12-08T17:42:49.658Z,76.45
2022-12-08T17:45:19.028Z,95.97
2022-12-08T17:47:46.394Z,74.32
2022-12-08T17:50:13.991Z,83.00
2022-12-08T17:52:41.383Z,111.75
2022-12-08T17:55:09.297Z,71.68
2022-12-08T17:57:36.774Z,75.57
2022-12-08T18:00:08.780Z,74.45
2022-12-08T18:02:39.374Z,70.97
2022-12-08T18:05:07.486Z,74.60
2022-12-08T18:07:34.868Z,95.50
2022-12-08T18:10:02.367Z,70.25
2022-12-08T18:12:30.249Z,81.78
2022-12-08T18:14:57.669Z,61.75
2022-12-08T18:17:26.645Z,59.95
2022-12-08T18:19:54.019Z,64.57
2022-12-08T18:22:21.395Z,55.40
2022-12-08T18:24:51.247Z,64.72
2022-12-08T18:27:18.621Z,65.43
2022-12-08T18:29:46.067Z,61.00
2022-12-08T18:32:13.472Z,55.90
2022-12-08T18:34:42.267Z,70.22
2022-12-08T18:37:09.669Z,61.13
2022-12-08T18:39:37.453Z,90.30
2022-12-08T18:44:50.078Z,85.03
2022-12-08T18:47:17.459Z,134.38
2022-12-08T18:49:46.399Z,91.10
2022-12-08T18:52:14.467Z,93.22
2022-12-08T18:55:05.275Z,93.47
2022-12-08T18:57:30.421Z,75.20
2022-12-08T18:59:58.091Z,74.35
2022-12-08T19:02:25.490Z,92.28
2022-12-08T19:04:55.932Z,90.93
2022-12-08T19:07:23.315Z,86.75
2022-12-08T19:09:50.679Z,132.82
2022-12-08T19:12:18.337Z,167.93
2022-12-08T19:14:45.818Z,93.70
2022-12-08T19:17:13.347Z,132.68
2022-12-08T19:19:40.810Z,92.72
2022-12-08T19:22:09.798Z,145.95
2022-12-08T19:24:37.212Z,179.23
2022-12-08T19:27:05.079Z,102.82
2022-12-08T19:29:33.127Z,124.95
2022-12-08T19:32:00.814Z,134.80
2022-12-08T19:34:28.232Z,139.43
2022-12-08T19:36:55.841Z,91.70
2022-12-08T19:39:45.462Z,98.40
2022-12-08T19:42:34.563Z,118.25
2022-12-08T19:45:04.626Z,104.10
2022-12-08T19:47:36.326Z,95.47
2022-12-08T19:50:21.524Z,90.20
2022-12-08T19:52:52.261Z,109.88
2022-12-08T19:55:21.320Z,146.82
2022-12-08T19:57:49.140Z,105.45
2022-12-08T20:00:20.540Z,116.28
2022-12-08T20:02:50.366Z,130.60
2022-12-08T20:05:18.134Z,173.30
2022-12-08T20:07:45.914Z,142.15
2022-12-08T20:12:42.425Z,110.00
2022-12-08T20:15:11.066Z,157.68
2022-12-08T20:17:39.076Z,162.02
2022-12-08T20:22:38.092Z,120.65
2022-12-08T20:25:12.539Z,157.25
2022-12-08T20:27:43.269Z,126.50
2022-12-08T20:30:16.724Z,160.65
2022-12-08T20:32:45.097Z,204.52
2022-12-08T20:35:13.050Z,153.05
2022-12-08T20:37:40.591Z,324.08
2022-12-08T20:40:08.859Z,132.15
2022-12-08T20:42:36.466Z,131.00
2022-12-08T20:47:42.524Z,119.43
2022-12-08T20:50:10.945Z,106.00
2022-12-08T20:52:38.945Z,175.57
2022-12-08T20:55:11.953Z,112.80
2022-12-08T20:57:41.008Z,106.15
2022-12-08T21:00:11.451Z,119.13
2022-12-08T21:02:48.576Z,117.05
2022-12-08T21:05:16.489Z,141.93
2022-12-08T21:10:14.959Z,107.45
2022-12-08T21:12:42.792Z,105.05
2022-12-08T21:15:12.029Z,107.20
2022-12-08T21:17:44.416Z,98.60
2022-12-08T21:20:12.307Z,89.45
2022-12-08T21:22:40.922Z,114.38
2022-12-08T21:25:09.332Z,118.80
2022-12-08T21:27:37.783Z,124.63
2022-12-08T21:30:06.269Z,104.43
2022-12-08T21:32:36.814Z,109.75
2022-12-08T21:35:11.148Z,128.45
2022-12-08T21:37:39.989Z,117.43
2022-12-08T21:40:10.154Z,96.43
2022-12-08T21:42:49.589Z,101.45
2022-12-08T21:45:18.211Z,103.10
2022-12-08T21:47:46.330Z,165.38
2022-12-08T21:50:15.822Z,113.07
2022-12-08T21:52:44.381Z,105.03
2022-12-08T21:55:12.512Z,118.00
2022-12-08T21:57:40.271Z,92.43
2022-12-08T22:00:08.968Z,107.75
2022-12-08T22:02:37.819Z,98.63
2022-12-08T22:05:05.744Z,103.65
2022-12-08T22:12:29.539Z,113.18
2022-12-08T22:14:57.139Z,116.63
2022-12-08T22:17:27.823Z,114.20
2022-12-08T22:19:56.642Z,111.25
2022-12-08T22:22:26.514Z,114.20
2022-12-08T22:24:54.294Z,117.65
2022-12-08T22:27:22.169Z,132.85
2022-12-08T22:32:18.894Z,114.03
2022-12-08T22:34:46.536Z,169.20
2022-12-08T22:37:14.363Z,120.47
2022-12-08T22:42:09.704Z,125.38
2022-12-08T22:44:37.328Z,109.65
2022-12-08T22:47:05.105Z,137.18
2022-12-08T22:52:01.898Z,130.27
2022-12-08T22:54:32.511Z,239.02
2022-12-08T22:57:03.817Z,158.13
2022-12-08T22:59:34.772Z,184.82
2022-12-08T23:02:02.185Z,172.88
2022-12-08T23:04:29.681Z,197.32
2022-12-08T23:06:57.217Z,134.70
2022-12-08T23:09:25.934Z,158.00
2022-12-08T23:11:54.037Z,186.10
2022-12-08T23:14:22.678Z,147.10
2022-12-08T23:16:50.423Z,115.13
2022-12-08T23:19:17.876Z,131.10
2022-12-08T23:21:45.306Z,138.00
2022-12-08T23:24:12.666Z,208.80
2022-12-08T23:26:42.781Z,363.90
2022-12-08T23:29:10.216Z,297.73
2022-12-08T23:31:38.692Z,199.57
2022-12-08T23:34:06.151Z,126.85
2022-12-08T23:36:33.513Z,173.40
2022-12-08T23:39:00.919Z,152.85
2022-12-08T23:41:28.533Z,158.07
2022-12-08T23:43:57.677Z,204.73
2022-12-08T23:46:25.548Z,117.13
2022-12-08T23:48:53.286Z,118.25
2022-12-08T23:51:21.298Z,123.80
2022-12-08T23:53:48.868Z,152.15
2022-12-08T23:56:17.118Z,173.07
2022-12-08T23:58:45.089Z,162.93
